UTA282 UWWW-USSS
Flight info
| Callsign | UTA282 |
|---|---|
| Flight time | 1h 11m |
| Altitude | 35000 |
| Route | PIRIK2Y PIRIK P135 LOMBI LOMBI6S |
| Aircraft | B738/M-SDE2E3FGHIRWXY/LB1 |
Departure
| Time | 2025-10-07 05:39 |
|---|---|
| Airport | Kurumoch International Airport (UWWW) |
Arrival
| Time | 2025-10-07 06:50 |
|---|---|
| Airport | Koltsovo Airport (USSS) |
| Time | Latitude | Longitude | Altitude | Speed | Heading |
|---|---|---|---|---|---|
| 2025-10-07 05:26 | 53.51198 | 50.16013 | 486 ft | 0 kts | 333° |
| 2025-10-07 05:29 | 53.51178 | 50.16030 | 486 ft | 2 kts | 333° |
| 2025-10-07 05:30 | 53.51125 | 50.16040 | 486 ft | 1 kts | 56° |
| 2025-10-07 05:30 | 53.51122 | 50.16031 | 486 ft | 1 kts | 63° |
| 2025-10-07 05:31 | 53.51121 | 50.16028 | 486 ft | 0 kts | 62° |
| 2025-10-07 05:32 | 53.51127 | 50.16046 | 486 ft | 0 kts | 62° |
| 2025-10-07 05:33 | 53.51167 | 50.16170 | 486 ft | 8 kts | 63° |
| 2025-10-07 05:33 | 53.51224 | 50.16353 | 486 ft | 8 kts | 62° |
| 2025-10-07 05:34 | 53.51313 | 50.16637 | 486 ft | 9 kts | 62° |
| 2025-10-07 05:34 | 53.51418 | 50.16687 | 486 ft | 9 kts | 341° |
| 2025-10-07 05:35 | 53.51526 | 50.16624 | 486 ft | 8 kts | 340° |
| 2025-10-07 05:35 | 53.51586 | 50.16588 | 486 ft | 10 kts | 340° |
| 2025-10-07 05:36 | 53.51780 | 50.16600 | 486 ft | 8 kts | 44° |
| 2025-10-07 05:36 | 53.51810 | 50.16801 | 486 ft | 8 kts | 100° |
| 2025-10-07 05:37 | 53.51744 | 50.16898 | 486 ft | 7 kts | 162° |
| 2025-10-07 05:38 | 53.49746 | 50.18073 | 585 ft | 175 kts | 161° |
| 2025-10-07 05:38 | 53.47558 | 50.19393 | 2070 ft | 171 kts | 160° |
| 2025-10-07 05:38 | 53.46407 | 50.20080 | 2515 ft | 180 kts | 161° |
| 2025-10-07 05:39 | 53.43863 | 50.21602 | 3284 ft | 209 kts | 161° |
| 2025-10-07 05:39 | 53.40987 | 50.23338 | 4186 ft | 235 kts | 159° |
| 2025-10-07 05:40 | 53.38187 | 50.26553 | 5209 ft | 259 kts | 139° |
| 2025-10-07 05:40 | 53.35521 | 50.30613 | 6640 ft | 263 kts | 141° |
| 2025-10-07 05:41 | 53.32705 | 50.34630 | 7898 ft | 272 kts | 143° |
| 2025-10-07 05:41 | 53.29749 | 50.38798 | 8220 ft | 280 kts | 142° |
| 2025-10-07 05:42 | 53.26998 | 50.43280 | 8214 ft | 280 kts | 125° |
| 2025-10-07 05:42 | 53.26048 | 50.49742 | 9265 ft | 295 kts | 99° |
| 2025-10-07 05:43 | 53.25552 | 50.56587 | 10470 ft | 305 kts | 99° |
| 2025-10-07 05:43 | 53.24925 | 50.64007 | 11015 ft | 339 kts | 100° |
| 2025-10-07 05:44 | 53.24244 | 50.72113 | 11622 ft | 369 kts | 98° |
| 2025-10-07 05:44 | 53.24723 | 50.80900 | 12199 ft | 400 kts | 70° |
| 2025-10-07 05:45 | 53.26002 | 50.85028 | 12853 ft | 402 kts | 56° |
| 2025-10-07 05:45 | 53.29773 | 50.91856 | 14101 ft | 404 kts | 31° |
| 2025-10-07 05:46 | 53.37466 | 50.97487 | 15996 ft | 411 kts | 17° |
| 2025-10-07 05:47 | 53.45539 | 51.02658 | 17833 ft | 423 kts | 17° |
| 2025-10-07 05:47 | 53.48299 | 51.04512 | 18460 ft | 426 kts | 17° |
| 2025-10-07 05:47 | 53.53793 | 51.08263 | 19638 ft | 433 kts | 17° |
| 2025-10-07 05:48 | 53.59388 | 51.12111 | 20788 ft | 439 kts | 17° |
| 2025-10-07 05:48 | 53.62215 | 51.14058 | 21279 ft | 443 kts | 17° |
| 2025-10-07 05:49 | 53.67957 | 51.18015 | 22306 ft | 451 kts | 17° |
| 2025-10-07 05:49 | 53.73759 | 51.22026 | 23344 ft | 457 kts | 17° |
| 2025-10-07 05:50 | 53.82616 | 51.28174 | 24764 ft | 466 kts | 17° |
| 2025-10-07 05:50 | 53.88641 | 51.32370 | 25724 ft | 471 kts | 16° |
| 2025-10-07 05:52 | 54.07814 | 51.55001 | 28791 ft | 508 kts | 48° |
| 2025-10-07 05:55 | 54.29005 | 52.02025 | 32952 ft | 498 kts | 48° |
| 2025-10-07 05:56 | 54.43803 | 52.34607 | 34984 ft | 492 kts | 49° |
| 2025-10-07 05:58 | 54.60301 | 52.71591 | 35252 ft | 486 kts | 50° |
| 2025-10-07 06:00 | 54.74226 | 53.11559 | 35267 ft | 489 kts | 59° |
| 2025-10-07 06:02 | 54.87162 | 53.52820 | 35294 ft | 488 kts | 59° |
| 2025-10-07 06:04 | 54.99965 | 53.94091 | 35309 ft | 485 kts | 60° |
| 2025-10-07 06:06 | 55.12567 | 54.35341 | 35309 ft | 481 kts | 60° |
| 2025-10-07 06:08 | 55.23392 | 54.71397 | 35259 ft | 479 kts | 61° |
| 2025-10-07 06:11 | 55.38718 | 55.23382 | 35322 ft | 471 kts | 61° |
| 2025-10-07 06:12 | 55.47611 | 55.54025 | 35341 ft | 468 kts | 62° |
| 2025-10-07 06:14 | 55.60731 | 56.00065 | 35336 ft | 468 kts | 63° |
| 2025-10-07 06:16 | 55.70822 | 56.36056 | 35336 ft | 468 kts | 63° |
| 2025-10-07 06:18 | 55.83602 | 56.82528 | 35331 ft | 466 kts | 64° |
| 2025-10-07 06:20 | 55.93389 | 57.18677 | 35336 ft | 463 kts | 65° |
| 2025-10-07 06:22 | 56.05684 | 57.64901 | 35338 ft | 457 kts | 65° |
| 2025-10-07 06:24 | 56.15125 | 58.01205 | 35317 ft | 466 kts | 66° |
| 2025-10-07 06:27 | 56.28429 | 58.53183 | 33540 ft | 454 kts | 67° |
| 2025-10-07 06:28 | 56.37648 | 58.89811 | 28039 ft | 457 kts | 65° |
| 2025-10-07 06:30 | 56.43196 | 59.15949 | 24756 ft | 441 kts | 78° |
| 2025-10-07 06:30 | 56.44038 | 59.26793 | 23466 ft | 435 kts | 83° |
| 2025-10-07 06:30 | 56.44333 | 59.32120 | 22839 ft | 432 kts | 84° |
| 2025-10-07 06:31 | 56.44889 | 59.42873 | 21526 ft | 427 kts | 84° |
| 2025-10-07 06:31 | 56.45440 | 59.53405 | 20214 ft | 422 kts | 83° |
| 2025-10-07 06:32 | 56.45992 | 59.63825 | 18905 ft | 416 kts | 83° |
| 2025-10-07 06:32 | 56.46538 | 59.74117 | 17611 ft | 411 kts | 84° |
| 2025-10-07 06:33 | 56.47074 | 59.84329 | 16296 ft | 405 kts | 84° |
| 2025-10-07 06:34 | 56.47847 | 59.99245 | 14354 ft | 396 kts | 84° |
| 2025-10-07 06:34 | 56.48102 | 60.04200 | 13693 ft | 391 kts | 84° |
| 2025-10-07 06:34 | 56.48583 | 60.13682 | 12449 ft | 371 kts | 84° |
| 2025-10-07 06:35 | 56.49030 | 60.22643 | 11321 ft | 350 kts | 84° |
| 2025-10-07 06:35 | 56.49439 | 60.30958 | 10904 ft | 314 kts | 84° |
| 2025-10-07 06:36 | 56.49801 | 60.38390 | 10691 ft | 280 kts | 84° |
| 2025-10-07 06:36 | 56.50127 | 60.45219 | 10241 ft | 269 kts | 83° |
| 2025-10-07 06:37 | 56.50445 | 60.51898 | 9572 ft | 267 kts | 84° |
| 2025-10-07 06:38 | 56.50908 | 60.61786 | 8615 ft | 262 kts | 84° |
| 2025-10-07 06:38 | 56.51059 | 60.65043 | 8297 ft | 260 kts | 84° |
| 2025-10-07 06:38 | 56.51357 | 60.71549 | 7671 ft | 256 kts | 85° |
| 2025-10-07 06:39 | 56.51636 | 60.77733 | 7439 ft | 237 kts | 85° |
| 2025-10-07 06:39 | 56.51902 | 60.83651 | 7430 ft | 244 kts | 85° |
| 2025-10-07 06:40 | 56.52175 | 60.89786 | 7422 ft | 244 kts | 84° |
| 2025-10-07 06:40 | 56.52442 | 60.95905 | 7376 ft | 242 kts | 84° |
| 2025-10-07 06:41 | 56.52698 | 61.01834 | 6942 ft | 231 kts | 84° |
| 2025-10-07 06:41 | 56.53010 | 61.07486 | 6439 ft | 222 kts | 75° |
| 2025-10-07 06:42 | 56.54841 | 61.11589 | 5967 ft | 215 kts | 25° |
| 2025-10-07 06:42 | 56.57722 | 61.12620 | 5479 ft | 213 kts | 357° |
| 2025-10-07 06:43 | 56.60668 | 61.12478 | 4908 ft | 213 kts | 359° |
| 2025-10-07 06:43 | 56.63533 | 61.12497 | 4571 ft | 196 kts | 359° |
| 2025-10-07 06:44 | 56.66179 | 61.12070 | 4018 ft | 192 kts | 349° |
| 2025-10-07 06:44 | 56.68791 | 61.11258 | 3472 ft | 190 kts | 351° |
| 2025-10-07 06:45 | 56.70097 | 61.10885 | 3264 ft | 190 kts | 351° |
| 2025-10-07 06:46 | 56.74257 | 61.06716 | 2682 ft | 185 kts | 271° |
| 2025-10-07 06:46 | 56.74285 | 61.04376 | 2682 ft | 186 kts | 271° |
| 2025-10-07 06:46 | 56.74368 | 60.99727 | 2670 ft | 180 kts | 270° |
| 2025-10-07 06:47 | 56.74401 | 60.95472 | 2355 ft | 164 kts | 269° |
| 2025-10-07 06:47 | 56.74422 | 60.91436 | 1885 ft | 159 kts | 269° |
| 2025-10-07 06:48 | 56.74442 | 60.87423 | 1422 ft | 159 kts | 269° |
| 2025-10-07 06:48 | 56.74455 | 60.85420 | 1177 ft | 158 kts | 271° |
| 2025-10-07 06:49 | 56.74472 | 60.81479 | 781 ft | 148 kts | 270° |
| 2025-10-07 06:49 | 56.74481 | 60.78868 | 777 ft | 31 kts | 270° |
| 2025-10-07 06:50 | 56.74485 | 60.78202 | 777 ft | 14 kts | 290° |
| 2025-10-07 06:50 | 56.74663 | 60.78151 | 777 ft | 12 kts | 1° |
| 2025-10-07 06:51 | 56.74746 | 60.78148 | 777 ft | 11 kts | 359° |
| 2025-10-07 06:51 | 56.74858 | 60.78220 | 777 ft | 8 kts | 90° |
| 2025-10-07 06:52 | 56.74857 | 60.78538 | 777 ft | 8 kts | 90° |
| 2025-10-07 06:53 | 56.74855 | 60.78962 | 777 ft | 9 kts | 90° |
| 2025-10-07 06:54 | 56.74852 | 60.79319 | 777 ft | 9 kts | 91° |
| 2025-10-07 06:55 | 56.74851 | 60.79753 | 777 ft | 5 kts | 90° |
| 2025-10-07 06:55 | 56.74882 | 60.79827 | 777 ft | 3 kts | 6° |
| 2025-10-07 06:56 | 56.74926 | 60.79829 | 777 ft | 0 kts | 0° |